• Join FlightAware (Why Join?)
  • Login
  • US Flag 
03:27PM EST


 

Airport Tracker/Info


-or-


 

Live Flight TrackerFlight Track Log ✈ SWA127 ✈ 28-Apr-2013 ✈ KHOU - KHOU

Flight Track Log - Related Links

Times and Time Zones

All times are in EDT time to prevent confusion due to time zone crossing. See the SWA127 flight status page for this flight to view local times or setup timezone preferences in your user account.

Time Position Orientation Groundspeed Altitude Reporting Facility
EDT Latitude Longitude Course Direction KTS MPH feet Rate Location/Type
12:56PM 29.5606 -95.2525 196° South 237 273 3,300  Level Houston Center
12:57PM 29.5017 -95.2483 176° South 229 264 4,900 1,918 Climbing Houston Center
12:58PM 29.4108 -95.2467 179° South 292 336 7,200 2,067 Climbing Houston Center
12:59PM 29.3283 -95.2397 176° South 293 337 9,000 1,594 Climbing Houston Center
01:00PM 29.2475 -95.2642 195° South 305 351 10,600 1,814 Climbing Houston Center
01:01PM 29.1821 -95.6117 196° South  Level Estimated
01:01PM 29.1669 -95.3247 213° Southwest 336 387 12,900  Level Houston Center
01:02PM 29.0858 -95.3894 215° Southwest 351 404 15,000 1,790 Climbing Houston Center
01:03PM 28.9844 -95.4322 200° South 389 448 16,600 919 Climbing Houston Center
01:04PM 28.8547 -95.4719 195° South 400 460 16,900 194 Climbing Houston Center
01:05PM 28.7914 -95.5511 228° Southwest 354 407 17,000 -265 Climbing Houston Center
01:06PM 28.8225 -95.6322 294° West 321 369 16,400 -857 Descending Houston Center
01:07PM 28.9169 -95.6547 348° North 326 375 15,400 -1,377 Descending Houston Center
01:08PM 29.0103 -95.6414 North 332 382 13,600 -1,869 Descending Houston Center
01:09PM 29.1014 -95.6283 North 330 380 11,600 -1,692 Descending Houston Center
01:10PM 29.1806 -95.6214 North 315 362 10,300 -1,520 Descending Houston Center
01:10PM 29.2086 -95.6203 North 313 360 9,700 -1,522 Descending Houston Center
01:11PM 29.2711 -95.6011 15° North 282 325 8,600 -1,403 Descending Houston Center
01:12PM 29.3600 -95.5764 14° North 279 321 6,800 -1,453 Descending Houston Center
01:13PM 29.4142 -95.5342 34° Northeast 271 312 5,500 -1,570 Descending Houston Center
01:14PM 29.4636 -95.4778 45° Northeast 271 312 4,000 -1,417 Descending Houston Center
01:14PM 29.4750 -95.4664 41° Northeast 270 311 3,800 -984 Descending Houston Center
01:15PM 29.5208 -95.4133 45° Northeast 268 308 3,000 -774 Descending Houston Center
01:15PM 29.5289 -95.4069 35° Northeast 269 310 3,000 -764 Level Houston Center
01:16PM 29.5631 -95.3700 43° Northeast 201 231 2,300 -871 Descending Houston Center
01:16PM 29.5714 -95.3597 47° Northeast 232 267 2,100 -984 Descending Houston Center
01:17PM 29.5992 -95.3294 43° Northeast 169 194 1,300 -1,161 Descending Houston Center
01:17PM 29.6133 -95.3139 44° Northeast 194 223 900 -885 Descending Houston Center
01:18PM 29.6317 -95.2944 43° Northeast 148 170 400 -774 Descending Houston Center
01:19PM 29.6431 -95.2811 45° Northeast 166 191 100 -667 Descending Houston Center
01:21PM 29.6454 -95.2789 192° South  Level Estimated